createdAt,value
2022-11-15T00:00:58.422Z,9.03
2022-11-15T00:03:27.830Z,10.53
2022-11-15T00:05:55.104Z,9.43
2022-11-15T00:08:21.937Z,8.13
2022-11-15T00:11:00.227Z,7.70
2022-11-15T00:13:28.030Z,7.60
2022-11-15T00:15:58.402Z,7.20
2022-11-15T00:18:25.453Z,7.30
2022-11-15T00:20:52.500Z,6.80
2022-11-15T00:23:19.290Z,6.43
2022-11-15T00:25:46.353Z,6.47
2022-11-15T00:28:13.373Z,7.23
2022-11-15T00:30:40.432Z,6.77
2022-11-15T00:33:07.724Z,9.63
2022-11-15T00:35:35.818Z,12.27
2022-11-15T00:38:03.589Z,11.20
2022-11-15T00:40:30.865Z,12.43
2022-11-15T00:42:58.223Z,8.53
2022-11-15T00:45:25.773Z,7.23
2022-11-15T00:47:52.765Z,11.50
2022-11-15T00:50:20.172Z,14.60
2022-11-15T00:52:46.943Z,7.83
2022-11-15T00:55:16.772Z,6.47
2022-11-15T00:57:43.762Z,10.87
2022-11-15T01:00:12.061Z,9.07
2022-11-15T01:02:39.443Z,6.70
2022-11-15T01:05:07.341Z,10.60
2022-11-15T01:07:34.442Z,14.00
2022-11-15T01:10:01.693Z,10.70
2022-11-15T01:12:28.583Z,14.33
2022-11-15T01:14:55.722Z,6.70
2022-11-15T01:17:22.554Z,5.77
2022-11-15T01:19:49.682Z,13.93
2022-11-15T01:22:16.520Z,16.00
2022-11-15T01:24:43.623Z,7.10
2022-11-15T01:27:11.185Z,7.00
2022-11-15T01:29:38.259Z,7.73
2022-11-15T01:32:05.091Z,10.43
2022-11-15T01:34:32.192Z,6.73
2022-11-15T01:36:59.033Z,10.60
2022-11-15T01:39:26.354Z,7.53
2022-11-15T01:41:53.575Z,7.13
2022-11-15T01:44:29.470Z,6.17
2022-11-15T01:46:56.726Z,15.67
2022-11-15T01:49:25.062Z,10.27
2022-11-15T01:51:52.974Z,11.27
2022-11-15T01:54:22.332Z,8.30
2022-11-15T01:56:54.729Z,8.60
2022-11-15T01:59:22.881Z,6.00
2022-11-15T02:01:50.073Z,5.60
2022-11-15T02:04:23.845Z,5.90
2022-11-15T02:06:50.776Z,7.13
2022-11-15T02:09:18.586Z,5.87
2022-11-15T02:11:48.022Z,6.90
2022-11-15T02:14:18.770Z,6.00
2022-11-15T02:17:01.419Z,5.83
2022-11-15T02:19:34.311Z,7.63
2022-11-15T02:22:04.065Z,11.33
2022-11-15T02:25:08.061Z,6.60
2022-11-15T02:28:02.407Z,5.60
2022-11-15T02:30:32.432Z,7.00
2022-11-15T02:33:06.204Z,6.57
2022-11-15T02:35:39.342Z,10.87
2022-11-15T02:38:08.845Z,8.43
2022-11-15T02:40:35.845Z,6.73
2022-11-15T02:43:31.325Z,5.50
2022-11-15T02:46:10.921Z,4.93
2022-11-15T02:51:05.665Z,6.20
2022-11-15T02:53:32.793Z,6.33
2022-11-15T02:56:00.124Z,7.73
2022-11-15T02:58:45.540Z,4.93
2022-11-15T03:01:18.533Z,6.40
2022-11-15T03:04:03.597Z,6.40
2022-11-15T03:06:41.183Z,3.80
2022-11-15T03:09:15.159Z,4.00
2022-11-15T03:11:49.735Z,5.80
2022-11-15T03:14:27.047Z,5.10
2022-11-15T03:17:15.633Z,7.93
2022-11-15T03:19:46.763Z,2.53
2022-11-15T03:22:18.482Z,4.07
2022-11-15T03:24:48.352Z,4.70
2022-11-15T03:27:22.711Z,4.97
2022-11-15T03:29:54.688Z,4.90
2022-11-15T03:32:26.734Z,4.63
2022-11-15T03:34:59.875Z,4.40
2022-11-15T03:37:35.237Z,6.37
2022-11-15T03:40:03.489Z,4.37
2022-11-15T03:42:44.359Z,4.00
2022-11-15T03:45:36.364Z,4.50
2022-11-15T03:48:11.486Z,3.47
2022-11-15T03:50:38.398Z,3.50
2022-11-15T03:53:06.073Z,3.53
2022-11-15T03:55:33.954Z,3.20
2022-11-15T03:58:02.191Z,3.67
2022-11-15T04:00:29.671Z,3.63
2022-11-15T04:02:56.981Z,3.93
2022-11-15T04:05:23.806Z,4.10
2022-11-15T04:07:50.875Z,4.67
2022-11-15T04:10:17.933Z,3.83
2022-11-15T04:12:48.614Z,4.87
2022-11-15T04:15:18.078Z,5.53
2022-11-15T04:17:54.470Z,4.50
2022-11-15T04:20:46.198Z,3.67
2022-11-15T04:23:34.909Z,3.90
2022-11-15T04:26:08.209Z,7.03
2022-11-15T04:28:35.252Z,6.37
2022-11-15T04:31:02.209Z,3.80
2022-11-15T04:33:29.737Z,6.83
2022-11-15T04:36:15.475Z,3.87
2022-11-15T04:38:42.502Z,3.17
2022-11-15T04:41:09.254Z,2.80
2022-11-15T04:43:36.427Z,2.63
2022-11-15T04:46:03.383Z,2.47
2022-11-15T04:48:30.525Z,3.07
2022-11-15T04:50:57.274Z,3.07
2022-11-15T04:53:24.321Z,4.17
2022-11-15T04:55:51.061Z,4.53
2022-11-15T04:58:18.069Z,4.13
2022-11-15T05:00:44.910Z,2.90
2022-11-15T05:03:30.871Z,2.60
2022-11-15T05:05:58.938Z,2.57
2022-11-15T05:08:26.515Z,2.80
2022-11-15T05:10:53.274Z,2.83
2022-11-15T05:13:20.342Z,4.00
2022-11-15T05:15:48.068Z,3.17
2022-11-15T05:18:18.279Z,2.60
2022-11-15T05:20:49.061Z,5.60
2022-11-15T05:23:16.135Z,4.30
2022-11-15T05:25:42.934Z,4.33
2022-11-15T05:28:09.994Z,4.30
2022-11-15T05:30:36.744Z,4.10
2022-11-15T05:33:04.590Z,4.70
2022-11-15T05:35:35.421Z,3.60
2022-11-15T05:38:02.437Z,3.73
2022-11-15T05:40:31.362Z,3.80
2022-11-15T05:43:00.918Z,6.23
2022-11-15T05:45:27.968Z,7.67
2022-11-15T05:47:57.779Z,4.93
2022-11-15T05:50:24.727Z,3.87
2022-11-15T05:52:52.623Z,4.53
2022-11-15T05:55:19.608Z,5.57
2022-11-15T05:57:46.681Z,4.83
2022-11-15T06:00:13.896Z,10.43
2022-11-15T06:02:40.914Z,5.67
2022-11-15T06:05:07.739Z,8.53
2022-11-15T06:07:34.869Z,8.20
2022-11-15T06:10:02.165Z,10.97
2022-11-15T06:12:29.214Z,12.80
2022-11-15T06:14:55.966Z,13.43
2022-11-15T06:17:23.000Z,6.07
2022-11-15T06:19:49.820Z,5.90
2022-11-15T06:22:16.894Z,5.40
2022-11-15T06:24:44.997Z,6.23
2022-11-15T06:27:12.570Z,5.82
2022-11-15T06:29:39.333Z,7.63
2022-11-15T06:32:06.993Z,5.73
2022-11-15T06:34:33.848Z,7.43
2022-11-15T06:37:01.050Z,6.60
2022-11-15T06:39:27.852Z,5.70
2022-11-15T06:41:54.930Z,5.40
2022-11-15T06:44:21.683Z,6.13
2022-11-15T06:46:48.670Z,6.03
2022-11-15T06:49:15.463Z,16.03
2022-11-15T06:51:42.464Z,7.40
2022-11-15T06:54:09.200Z,19.10
2022-11-15T06:56:36.242Z,8.10
2022-11-15T06:59:03.034Z,7.27
2022-11-15T07:01:30.137Z,10.63
2022-11-15T07:03:56.914Z,8.20
2022-11-15T07:06:23.946Z,8.37
2022-11-15T07:08:50.726Z,7.67
2022-11-15T07:11:17.741Z,10.57
2022-11-15T07:13:44.477Z,12.13
2022-11-15T07:16:12.102Z,9.93
2022-11-15T07:18:40.458Z,10.57
2022-11-15T07:21:10.705Z,14.00
2022-11-15T07:23:39.203Z,6.97
2022-11-15T07:26:07.309Z,21.92
2022-11-15T07:28:34.790Z,7.97
2022-11-15T07:31:07.453Z,3.60
2022-11-15T07:33:35.213Z,6.40
2022-11-15T07:36:04.566Z,2.35
2022-11-15T07:38:31.692Z,3.30
2022-11-15T07:41:00.526Z,4.35
2022-11-15T07:43:31.746Z,4.72
2022-11-15T07:45:59.847Z,2.78
2022-11-15T07:48:35.598Z,6.47
2022-11-15T07:51:15.731Z,69.88
2022-11-15T07:53:44.199Z,6.45
2022-11-15T07:56:12.185Z,6.05
2022-11-15T07:58:38.962Z,3.20
2022-11-15T08:01:07.181Z,3.83
2022-11-15T08:03:34.822Z,4.32
2022-11-15T08:06:02.844Z,3.85
2022-11-15T08:08:30.041Z,3.67
2022-11-15T08:10:59.577Z,3.72
2022-11-15T08:13:26.352Z,3.05
2022-11-15T08:15:57.560Z,2.97
2022-11-15T08:18:24.554Z,2.67
2022-11-15T08:20:51.716Z,2.58
2022-11-15T08:23:18.434Z,2.17
2022-11-15T08:25:45.487Z,2.45
2022-11-15T08:28:12.402Z,2.40
2022-11-15T08:30:43.091Z,2.50
2022-11-15T08:33:14.414Z,3.00
2022-11-15T08:35:45.252Z,5.10
2022-11-15T08:38:12.295Z,19.13
2022-11-15T08:40:39.368Z,4.25
2022-11-15T08:43:06.702Z,2.90
2022-11-15T08:45:36.216Z,4.90
2022-11-15T08:48:04.195Z,2.83
2022-11-15T08:50:31.417Z,2.63
2022-11-15T08:52:58.767Z,2.75
2022-11-15T08:55:25.863Z,2.50
2022-11-15T08:57:52.615Z,2.95
2022-11-15T09:00:21.039Z,2.40
2022-11-15T09:02:47.930Z,2.17
2022-11-15T09:05:16.543Z,28.85
2022-11-15T09:07:43.376Z,4.40
2022-11-15T09:10:10.575Z,5.80
2022-11-15T09:12:37.456Z,3.78
2022-11-15T09:15:06.410Z,3.00
2022-11-15T09:17:33.123Z,3.75
2022-11-15T09:20:00.360Z,2.80
2022-11-15T09:22:27.208Z,3.30
2022-11-15T09:24:54.246Z,3.17
2022-11-15T09:27:20.987Z,2.67
2022-11-15T09:29:48.005Z,3.20
2022-11-15T09:32:14.763Z,3.15
2022-11-15T09:34:41.811Z,3.65
2022-11-15T09:37:08.586Z,4.28
2022-11-15T09:39:36.115Z,4.70
2022-11-15T09:42:36.868Z,3.45
2022-11-15T09:45:27.252Z,3.28
2022-11-15T09:48:20.292Z,4.47
2022-11-15T09:50:50.657Z,4.13
2022-11-15T09:54:01.127Z,4.13
2022-11-15T09:56:30.529Z,3.80
2022-11-15T09:59:12.314Z,3.80
2022-11-15T10:02:03.566Z,4.80
2022-11-15T10:04:32.817Z,5.30
2022-11-15T10:07:14.907Z,5.93
2022-11-15T10:09:57.623Z,6.18
2022-11-15T10:12:26.154Z,7.65
2022-11-15T10:15:08.023Z,6.28
2022-11-15T10:17:35.019Z,5.82
2022-11-15T10:20:20.838Z,6.10
2022-11-15T10:22:51.609Z,6.45
2022-11-15T10:25:27.599Z,6.20
2022-11-15T10:28:02.846Z,6.57
2022-11-15T10:30:36.154Z,6.55
2022-11-15T10:33:14.976Z,6.43
2022-11-15T10:35:42.570Z,6.57
2022-11-15T10:38:12.488Z,6.45
2022-11-15T10:40:41.153Z,6.63
2022-11-15T10:43:10.982Z,6.72
2022-11-15T10:45:39.312Z,7.53
2022-11-15T10:48:15.210Z,6.57
2022-11-15T10:50:47.089Z,7.43
2022-11-15T10:53:43.048Z,6.55
2022-11-15T10:56:14.520Z,8.25
2022-11-15T10:58:51.029Z,6.80
2022-11-15T11:01:25.682Z,8.77
2022-11-15T11:04:07.799Z,8.13
2022-11-15T11:06:50.440Z,8.85
2022-11-15T11:09:36.616Z,8.60
2022-11-15T11:12:10.830Z,8.05
2022-11-15T11:14:40.072Z,8.63
2022-11-15T11:17:22.022Z,8.75
2022-11-15T11:19:55.140Z,7.25
2022-11-15T11:22:55.586Z,8.05
2022-11-15T11:25:25.574Z,8.20
2022-11-15T11:28:48.954Z,7.65
2022-11-15T11:31:27.516Z,9.00
2022-11-15T11:34:15.768Z,8.32
2022-11-15T11:36:59.805Z,8.05
2022-11-15T11:40:10.625Z,9.10
2022-11-15T11:42:44.821Z,8.52
2022-11-15T11:45:24.467Z,11.68
2022-11-15T11:48:03.823Z,10.18
2022-11-15T11:50:30.719Z,8.50
2022-11-15T11:53:15.708Z,8.95
2022-11-15T11:55:53.972Z,9.07
2022-11-15T11:58:41.230Z,9.00
2022-11-15T12:01:31.423Z,8.40
2022-11-15T12:04:12.630Z,9.15
2022-11-15T12:06:43.701Z,9.27
2022-11-15T12:09:17.251Z,8.93
2022-11-15T12:12:02.102Z,9.80
2022-11-15T12:14:34.291Z,8.82
2022-11-15T12:17:01.558Z,10.00
2022-11-15T12:19:30.921Z,8.40
2022-11-15T12:22:16.457Z,8.90
2022-11-15T12:25:14.184Z,9.93
2022-11-15T12:27:58.446Z,10.70
2022-11-15T12:30:42.194Z,11.73
2022-11-15T12:33:46.830Z,13.05
2022-11-15T12:36:42.591Z,10.70
2022-11-15T12:39:11.797Z,12.60
2022-11-15T12:42:05.126Z,12.02
2022-11-15T12:44:31.882Z,12.32
2022-11-15T12:46:58.890Z,11.80
2022-11-15T12:49:28.806Z,11.50
2022-11-15T12:51:58.646Z,13.68
2022-11-15T12:54:25.584Z,21.17
2022-11-15T12:57:05.030Z,26.80
2022-11-15T13:02:40.682Z,32.10
2022-11-15T13:05:16.307Z,20.25
2022-11-15T13:07:43.415Z,20.08
2022-11-15T13:10:12.981Z,17.48
2022-11-15T13:12:46.014Z,18.58
2022-11-15T13:15:12.677Z,29.60
2022-11-15T13:17:45.534Z,33.88
2022-11-15T13:20:12.278Z,39.80
2022-11-15T13:23:01.922Z,24.27
2022-11-15T13:25:37.890Z,19.70
2022-11-15T13:28:10.744Z,16.55
2022-11-15T13:30:38.465Z,15.90
2022-11-15T13:33:12.144Z,17.45
2022-11-15T13:35:42.074Z,16.67
2022-11-15T13:38:21.288Z,17.08
2022-11-15T13:40:48.035Z,18.38
2022-11-15T13:43:24.101Z,16.05
2022-11-15T13:46:19.503Z,18.05
2022-11-15T13:48:51.816Z,17.15
2022-11-15T13:51:21.168Z,19.02
2022-11-15T13:54:00.985Z,22.10
2022-11-15T13:56:30.167Z,21.92
2022-11-15T13:58:57.446Z,22.65
2022-11-15T14:01:29.169Z,20.40
2022-11-15T14:04:01.637Z,21.55
2022-11-15T14:06:31.826Z,18.67
2022-11-15T14:09:20.324Z,18.15
2022-11-15T14:11:52.031Z,19.00
2022-11-15T14:14:24.623Z,22.88
2022-11-15T14:16:54.915Z,27.67
2022-11-15T14:19:21.942Z,22.85
2022-11-15T14:22:08.901Z,22.13
2022-11-15T14:24:36.292Z,27.38
2022-11-15T14:27:27.446Z,29.98
2022-11-15T14:29:54.725Z,39.88
2022-11-15T14:32:24.167Z,28.80
2022-11-15T14:34:57.783Z,20.60
2022-11-15T14:37:27.455Z,20.35
2022-11-15T14:39:55.185Z,22.27
2022-11-15T14:42:23.633Z,20.27
2022-11-15T14:44:51.309Z,46.40
2022-11-15T14:47:18.682Z,47.85
2022-11-15T14:49:46.451Z,45.75
2022-11-15T14:52:32.815Z,57.72
2022-11-15T14:55:04.274Z,51.08
2022-11-15T14:57:31.816Z,64.35
2022-11-15T14:59:58.963Z,73.53
2022-11-15T15:02:27.876Z,62.97
2022-11-15T15:04:55.448Z,59.47
2022-11-15T15:07:23.272Z,55.63
2022-11-15T15:09:50.370Z,48.80
2022-11-15T15:12:19.736Z,56.00
2022-11-15T15:14:49.099Z,56.07
2022-11-15T15:17:17.335Z,72.72
2022-11-15T15:19:44.457Z,98.88
2022-11-15T15:22:17.439Z,70.53
2022-11-15T15:24:46.203Z,98.23
2022-11-15T15:27:13.563Z,121.25
2022-11-15T15:29:41.524Z,127.67
2022-11-15T15:32:09.964Z,103.40
2022-11-15T15:34:37.013Z,94.45
2022-11-15T15:37:09.940Z,106.43
2022-11-15T15:39:36.993Z,99.87
2022-11-15T15:42:04.971Z,111.13
2022-11-15T15:44:31.974Z,73.68
2022-11-15T15:46:59.025Z,116.63
2022-11-15T15:49:26.061Z,154.50
2022-11-15T15:51:52.891Z,126.00
2022-11-15T15:54:19.913Z,113.63
2022-11-15T15:56:48.338Z,128.63
2022-11-15T15:59:16.995Z,135.63
2022-11-15T16:01:43.779Z,131.03
2022-11-15T16:04:10.897Z,127.77
2022-11-15T16:06:44.349Z,114.70
2022-11-15T16:09:20.198Z,105.30
2022-11-15T16:11:48.083Z,91.43
2022-11-15T16:14:15.176Z,98.90
2022-11-15T16:16:42.173Z,88.83
2022-11-15T16:19:11.576Z,91.47
2022-11-15T16:21:38.312Z,129.95
2022-11-15T16:24:05.638Z,143.13
2022-11-15T16:26:35.869Z,245.47
2022-11-15T16:29:02.978Z,153.87
2022-11-15T16:31:29.847Z,157.57
2022-11-15T16:33:56.920Z,161.67
2022-11-15T16:36:30.441Z,149.77
2022-11-15T16:38:59.556Z,130.30
2022-11-15T16:41:26.794Z,126.70
2022-11-15T16:43:53.840Z,142.90
2022-11-15T16:46:25.891Z,143.60
2022-11-15T16:48:54.335Z,143.03
2022-11-15T16:51:21.536Z,146.67
2022-11-15T16:53:51.691Z,149.33
2022-11-15T16:56:23.972Z,154.30
2022-11-15T16:58:51.143Z,148.40
2022-11-15T17:01:22.688Z,137.90
2022-11-15T17:03:49.814Z,132.80
2022-11-15T17:06:18.788Z,133.97
2022-11-15T17:11:19.178Z,127.10
2022-11-15T17:13:46.848Z,134.43
2022-11-15T17:16:15.874Z,143.13
2022-11-15T17:18:46.785Z,133.90
2022-11-15T17:21:15.908Z,147.00
2022-11-15T17:23:43.740Z,158.70
2022-11-15T17:26:29.633Z,158.10
2022-11-15T17:28:59.291Z,176.87
2022-11-15T17:31:26.065Z,181.30
2022-11-15T17:33:53.523Z,181.93
2022-11-15T17:36:21.126Z,178.97
2022-11-15T17:38:55.425Z,167.93
2022-11-15T17:41:27.032Z,162.70
2022-11-15T17:43:56.295Z,161.33
2022-11-15T17:46:23.064Z,158.10
2022-11-15T17:48:50.121Z,160.00
2022-11-15T17:51:18.639Z,163.17
2022-11-15T17:56:11.850Z,168.50
2022-11-15T17:58:39.738Z,171.87
2022-11-15T18:01:15.932Z,176.23
2022-11-15T18:03:43.291Z,173.00
2022-11-15T18:06:11.848Z,177.90
2022-11-15T18:08:41.278Z,176.45
2022-11-15T18:11:12.601Z,194.27
2022-11-15T18:13:41.603Z,193.40
2022-11-15T18:16:12.169Z,201.60
2022-11-15T18:18:39.776Z,205.00
2022-11-15T18:21:28.217Z,206.17
2022-11-15T18:24:01.012Z,216.80
2022-11-15T18:26:30.130Z,221.23
2022-11-15T18:29:02.600Z,198.13
2022-11-15T18:31:30.902Z,205.63
2022-11-15T18:34:01.114Z,205.90
2022-11-15T18:36:29.965Z,202.23
2022-11-15T18:38:59.339Z,219.20
2022-11-15T18:41:28.688Z,224.82
2022-11-15T18:44:00.599Z,238.03
2022-11-15T18:46:30.858Z,227.83
2022-11-15T18:49:00.119Z,245.57
2022-11-15T18:51:32.358Z,226.15
2022-11-15T18:54:01.950Z,213.27
2022-11-15T18:58:59.661Z,169.20
2022-11-15T19:01:41.396Z,151.83
2022-11-15T19:04:14.390Z,172.20
2022-11-15T19:06:43.801Z,218.47
2022-11-15T19:09:14.524Z,216.63
2022-11-15T19:11:41.828Z,205.33
2022-11-15T19:14:11.421Z,204.33
2022-11-15T19:19:10.679Z,179.68
2022-11-15T19:21:38.383Z,176.87
2022-11-15T19:24:06.067Z,172.25
2022-11-15T19:26:33.348Z,177.13
2022-11-15T19:29:01.864Z,166.80
2022-11-15T19:31:31.455Z,163.52
2022-11-15T19:34:00.475Z,156.90
2022-11-15T19:36:32.528Z,132.95
2022-11-15T19:39:08.329Z,117.53
2022-11-15T19:41:38.518Z,127.35
2022-11-15T19:44:06.586Z,124.97
2022-11-15T19:46:34.032Z,175.73
2022-11-15T19:49:01.825Z,176.03
2022-11-15T19:51:30.849Z,188.10
2022-11-15T19:54:06.722Z,198.10
2022-11-15T19:56:34.579Z,194.10
2022-11-15T19:59:02.862Z,188.10
2022-11-15T20:01:31.972Z,187.07
2022-11-15T20:04:00.380Z,181.85
2022-11-15T20:06:30.683Z,179.33
2022-11-15T20:08:58.456Z,175.17
2022-11-15T20:11:26.010Z,159.57
2022-11-15T20:14:00.384Z,140.27
2022-11-15T20:16:27.147Z,198.80
2022-11-15T20:18:54.294Z,207.90
2022-11-15T20:21:21.986Z,199.00
2022-11-15T20:23:51.097Z,203.95
2022-11-15T20:26:19.276Z,196.25
2022-11-15T20:28:48.178Z,192.77
2022-11-15T20:31:16.338Z,178.57
2022-11-15T20:33:43.721Z,177.00
2022-11-15T20:36:12.979Z,190.90
2022-11-15T20:38:40.132Z,202.53
2022-11-15T20:41:06.956Z,201.07
2022-11-15T20:43:34.169Z,208.10
2022-11-15T20:46:00.917Z,194.13
2022-11-15T20:48:28.004Z,191.57
2022-11-15T20:51:05.188Z,196.63
2022-11-15T20:53:32.447Z,200.03
2022-11-15T20:56:05.379Z,195.98
2022-11-15T20:58:33.017Z,199.33
2022-11-15T21:01:00.168Z,192.97
2022-11-15T21:03:27.771Z,193.17
2022-11-15T21:05:54.864Z,192.97
2022-11-15T21:08:21.961Z,205.37
2022-11-15T21:11:11.936Z,202.23
2022-11-15T21:13:39.451Z,199.00
2022-11-15T21:16:06.707Z,174.00
2022-11-15T21:18:34.293Z,186.07
2022-11-15T21:21:07.492Z,198.13
2022-11-15T21:23:34.568Z,186.20
2022-11-15T21:26:01.299Z,187.35
2022-11-15T21:28:28.332Z,188.07
2022-11-15T21:31:01.217Z,187.48
2022-11-15T21:33:28.558Z,174.97
2022-11-15T21:35:56.826Z,162.53
2022-11-15T21:38:24.795Z,97.95
2022-11-15T21:40:52.715Z,111.90
2022-11-15T21:43:20.777Z,101.47
2022-11-15T21:46:02.424Z,67.47
2022-11-15T21:48:31.422Z,52.40
2022-11-15T21:51:03.870Z,51.28
2022-11-15T21:53:31.779Z,38.17
2022-11-15T21:55:59.812Z,28.20
2022-11-15T21:58:27.739Z,22.23
2022-11-15T22:01:14.186Z,17.57
2022-11-15T22:03:42.357Z,16.73
2022-11-15T22:06:16.050Z,14.57
2022-11-15T22:08:45.600Z,14.93
2022-11-15T22:11:12.671Z,12.67
2022-11-15T22:13:40.014Z,10.20
2022-11-15T22:16:07.634Z,10.38
2022-11-15T22:18:34.902Z,13.93
2022-11-15T22:21:12.433Z,12.50
2022-11-15T22:23:40.348Z,11.00
2022-11-15T22:26:08.662Z,9.88
2022-11-15T22:28:36.137Z,7.93
2022-11-15T22:31:03.991Z,6.05
2022-11-15T22:33:32.939Z,7.00
2022-11-15T22:36:00.457Z,6.43
2022-11-15T22:38:28.426Z,6.97
2022-11-15T22:40:55.607Z,6.93
2022-11-15T22:43:24.498Z,7.10
2022-11-15T22:45:51.224Z,7.25
2022-11-15T22:48:20.453Z,7.28
2022-11-15T22:50:47.413Z,6.82
2022-11-15T22:53:14.544Z,7.00
2022-11-15T22:55:42.207Z,7.47
2022-11-15T22:58:10.073Z,6.32
2022-11-15T23:00:37.460Z,6.78
2022-11-15T23:03:04.585Z,6.82
2022-11-15T23:05:31.325Z,6.43
2022-11-15T23:07:58.335Z,6.90
2022-11-15T23:10:43.451Z,6.60
2022-11-15T23:13:17.262Z,6.55
2022-11-15T23:16:07.843Z,6.22
2022-11-15T23:18:39.180Z,6.65
2022-11-15T23:21:15.001Z,6.32
2022-11-15T23:23:42.243Z,7.05
2022-11-15T23:26:09.153Z,6.22
2022-11-15T23:28:36.377Z,6.22
2022-11-15T23:31:26.599Z,7.78
2022-11-15T23:33:59.354Z,5.63
2022-11-15T23:36:27.529Z,6.90
2022-11-15T23:38:55.019Z,7.00
2022-11-15T23:41:23.806Z,7.05
2022-11-15T23:43:52.029Z,7.05
2022-11-15T23:46:18.852Z,6.95
2022-11-15T23:48:46.308Z,7.85
2022-11-15T23:51:13.208Z,7.43
2022-11-15T23:53:40.373Z,7.10
2022-11-15T23:56:11.145Z,7.05
2022-11-15T23:58:38.203Z,7.65
